sensor_id;sensor_type;location;lat;lon;timestamp;pressure;altitude;pressure_sealevel;temperature;humidity
48668;BME280;34453;52.198;5.004;2023-12-14T00:00:44;101657.97;;;5.17;100.00
48668;BME280;34453;52.198;5.004;2023-12-14T00:03:10;101669.19;;;5.17;100.00
48668;BME280;34453;52.198;5.004;2023-12-14T00:05:35;101668.53;;;5.14;100.00
48668;BME280;34453;52.198;5.004;2023-12-14T00:08:01;101674.63;;;5.13;100.00
48668;BME280;34453;52.198;5.004;2023-12-14T00:10:26;101670.38;;;5.12;100.00
48668;BME280;34453;52.198;5.004;2023-12-14T00:12:52;101675.56;;;5.12;100.00
48668;BME280;34453;52.198;5.004;2023-12-14T00:15:20;101684.19;;;5.12;100.00
48668;BME280;34453;52.198;5.004;2023-12-14T00:17:45;101682.41;;;5.13;100.00
48668;BME280;34453;52.198;5.004;2023-12-14T00:20:11;101691.97;;;5.12;100.00
48668;BME280;34453;52.198;5.004;2023-12-14T00:22:36;101689.53;;;5.09;100.00
48668;BME280;34453;52.198;5.004;2023-12-14T00:25:04;101699.81;;;5.11;100.00
48668;BME280;34453;52.198;5.004;2023-12-14T00:27:29;101705.94;;;5.10;100.00
48668;BME280;34453;52.198;5.004;2023-12-14T00:29:55;101717.97;;;5.11;100.00
48668;BME280;34453;52.198;5.004;2023-12-14T00:32:20;101715.56;;;5.08;100.00
48668;BME280;34453;52.198;5.004;2023-12-14T00:34:46;101721.50;;;5.10;100.00
48668;BME280;34453;52.198;5.004;2023-12-14T00:37:11;101725.94;;;5.08;100.00
48668;BME280;34453;52.198;5.004;2023-12-14T00:39:37;101727.59;;;5.09;100.00
48668;BME280;34453;52.198;5.004;2023-12-14T00:42:02;101740.66;;;5.07;100.00
48668;BME280;34453;52.198;5.004;2023-12-14T00:44:28;101743.91;;;5.11;100.00
48668;BME280;34453;52.198;5.004;2023-12-14T00:46:53;101744.09;;;5.08;100.00
48668;BME280;34453;52.198;5.004;2023-12-14T00:49:19;101750.03;;;5.10;100.00
48668;BME280;34453;52.198;5.004;2023-12-14T00:51:44;101760.41;;;5.10;100.00
48668;BME280;34453;52.198;5.004;2023-12-14T00:54:10;101763.00;;;5.10;100.00
48668;BME280;34453;52.198;5.004;2023-12-14T00:56:35;101768.34;;;5.07;100.00
48668;BME280;34453;52.198;5.004;2023-12-14T00:59:01;101759.84;;;5.05;100.00
48668;BME280;34453;52.198;5.004;2023-12-14T01:01:26;101769.28;;;5.06;100.00
48668;BME280;34453;52.198;5.004;2023-12-14T01:03:52;101771.78;;;5.07;100.00
48668;BME280;34453;52.198;5.004;2023-12-14T01:06:17;101765.94;;;5.04;100.00
48668;BME280;34453;52.198;5.004;2023-12-14T01:08:43;101775.47;;;5.03;100.00
48668;BME280;34453;52.198;5.004;2023-12-14T01:11:08;101774.53;;;5.04;100.00
48668;BME280;34453;52.198;5.004;2023-12-14T01:13:34;101771.88;;;5.06;100.00
48668;BME280;34453;52.198;5.004;2023-12-14T01:15:59;101795.38;;;5.03;100.00
48668;BME280;34453;52.198;5.004;2023-12-14T01:18:24;101790.97;;;5.05;100.00
48668;BME280;34453;52.198;5.004;2023-12-14T01:20:50;101798.75;;;5.05;100.00
48668;BME280;34453;52.198;5.004;2023-12-14T01:23:16;101797.97;;;5.03;100.00
48668;BME280;34453;52.198;5.004;2023-12-14T01:25:41;101813.44;;;5.04;100.00
48668;BME280;34453;52.198;5.004;2023-12-14T01:28:07;101812.63;;;5.04;100.00
48668;BME280;34453;52.198;5.004;2023-12-14T01:30:33;101810.78;;;5.06;100.00
48668;BME280;34453;52.198;5.004;2023-12-14T01:32:59;101809.00;;;5.06;100.00
48668;BME280;34453;52.198;5.004;2023-12-14T01:35:24;101820.41;;;5.04;100.00
48668;BME280;34453;52.198;5.004;2023-12-14T01:37:50;101821.97;;;5.06;100.00
48668;BME280;34453;52.198;5.004;2023-12-14T01:40:18;101828.00;;;5.07;100.00
48668;BME280;34453;52.198;5.004;2023-12-14T01:42:45;101834.38;;;5.01;100.00
48668;BME280;34453;52.198;5.004;2023-12-14T01:45:10;101842.22;;;4.99;100.00
48668;BME280;34453;52.198;5.004;2023-12-14T01:47:36;101852.44;;;5.03;100.00
48668;BME280;34453;52.198;5.004;2023-12-14T01:50:01;101855.81;;;5.05;100.00
48668;BME280;34453;52.198;5.004;2023-12-14T01:52:27;101855.69;;;5.06;100.00
48668;BME280;34453;52.198;5.004;2023-12-14T01:54:53;101868.84;;;5.03;100.00
48668;BME280;34453;52.198;5.004;2023-12-14T01:57:20;101870.59;;;5.03;100.00
48668;BME280;34453;52.198;5.004;2023-12-14T01:59:46;101874.88;;;5.04;100.00
48668;BME280;34453;52.198;5.004;2023-12-14T02:02:11;101879.81;;;5.08;100.00
48668;BME280;34453;52.198;5.004;2023-12-14T02:04:36;101880.75;;;5.07;100.00
48668;BME280;34453;52.198;5.004;2023-12-14T02:07:03;101885.00;;;5.08;100.00
48668;BME280;34453;52.198;5.004;2023-12-14T02:09:28;101899.13;;;5.03;100.00
48668;BME280;34453;52.198;5.004;2023-12-14T02:11:54;101903.41;;;5.04;100.00
48668;BME280;34453;52.198;5.004;2023-12-14T02:14:22;101914.53;;;5.06;100.00
48668;BME280;34453;52.198;5.004;2023-12-14T02:16:48;101905.00;;;5.06;100.00
48668;BME280;34453;52.198;5.004;2023-12-14T02:19:14;101923.16;;;5.06;100.00
48668;BME280;34453;52.198;5.004;2023-12-14T02:21:39;101921.63;;;5.02;100.00
48668;BME280;34453;52.198;5.004;2023-12-14T02:24:05;101927.75;;;5.01;100.00
48668;BME280;34453;52.198;5.004;2023-12-14T02:26:30;101924.91;;;5.06;100.00
48668;BME280;34453;52.198;5.004;2023-12-14T02:28:56;101932.69;;;5.06;100.00
48668;BME280;34453;52.198;5.004;2023-12-14T02:31:23;101927.56;;;5.04;100.00
48668;BME280;34453;52.198;5.004;2023-12-14T02:33:49;101936.94;;;5.07;100.00
48668;BME280;34453;52.198;5.004;2023-12-14T02:36:14;101939.63;;;5.05;100.00
48668;BME280;34453;52.198;5.004;2023-12-14T02:38:40;101948.25;;;5.06;100.00
48668;BME280;34453;52.198;5.004;2023-12-14T02:41:05;101952.59;;;5.05;100.00
48668;BME280;34453;52.198;5.004;2023-12-14T02:43:31;101960.38;;;5.05;100.00
48668;BME280;34453;52.198;5.004;2023-12-14T02:45:56;101955.28;;;5.04;100.00
48668;BME280;34453;52.198;5.004;2023-12-14T02:48:27;101970.84;;;5.04;100.00
48668;BME280;34453;52.198;5.004;2023-12-14T02:50:54;101972.53;;;5.05;100.00
48668;BME280;34453;52.198;5.004;2023-12-14T02:53:20;101966.47;;;5.04;100.00
48668;BME280;34453;52.198;5.004;2023-12-14T02:55:45;101972.72;;;5.00;100.00
48668;BME280;34453;52.198;5.004;2023-12-14T02:58:11;101970.31;;;4.97;100.00
48668;BME280;34453;52.198;5.004;2023-12-14T03:00:36;101970.53;;;4.92;100.00
48668;BME280;34453;52.198;5.004;2023-12-14T03:03:02;101973.06;;;4.94;100.00
48668;BME280;34453;52.198;5.004;2023-12-14T03:05:27;101969.47;;;4.96;100.00
48668;BME280;34453;52.198;5.004;2023-12-14T03:07:53;101975.56;;;4.95;100.00
48668;BME280;34453;52.198;5.004;2023-12-14T03:10:18;101975.72;;;4.92;100.00
48668;BME280;34453;52.198;5.004;2023-12-14T03:12:44;101967.19;;;4.90;100.00
48668;BME280;34453;52.198;5.004;2023-12-14T03:15:09;101965.41;;;4.91;100.00
48668;BME280;34453;52.198;5.004;2023-12-14T03:17:35;101958.50;;;4.91;100.00
48668;BME280;34453;52.198;5.004;2023-12-14T03:20:00;101958.56;;;4.90;100.00
48668;BME280;34453;52.198;5.004;2023-12-14T03:22:26;101962.91;;;4.89;100.00
48668;BME280;34453;52.198;5.004;2023-12-14T03:24:51;101949.25;;;4.86;100.00
48668;BME280;34453;52.198;5.004;2023-12-14T03:27:16;101951.03;;;4.85;100.00
48668;BME280;34453;52.198;5.004;2023-12-14T03:29:42;101951.91;;;4.84;100.00
48668;BME280;34453;52.198;5.004;2023-12-14T03:32:07;101954.38;;;4.87;100.00
48668;BME280;34453;52.198;5.004;2023-12-14T03:34:33;101958.81;;;4.85;100.00
48668;BME280;34453;52.198;5.004;2023-12-14T03:36:58;101965.59;;;4.88;100.00
48668;BME280;34453;52.198;5.004;2023-12-14T03:39:24;101959.69;;;4.84;100.00
48668;BME280;34453;52.198;5.004;2023-12-14T03:41:49;101966.66;;;4.84;100.00
48668;BME280;34453;52.198;5.004;2023-12-14T03:44:15;101965.22;;;4.78;100.00
48668;BME280;34453;52.198;5.004;2023-12-14T03:46:40;101970.41;;;4.78;100.00
48668;BME280;34453;52.198;5.004;2023-12-14T03:49:06;101965.28;;;4.76;100.00
48668;BME280;34453;52.198;5.004;2023-12-14T03:51:31;101974.94;;;4.73;100.00
48668;BME280;34453;52.198;5.004;2023-12-14T03:53:57;101978.47;;;4.72;100.00
48668;BME280;34453;52.198;5.004;2023-12-14T03:56:22;101982.28;;;4.65;100.00
48668;BME280;34453;52.198;5.004;2023-12-14T03:58:48;101979.75;;;4.63;100.00
48668;BME280;34453;52.198;5.004;2023-12-14T04:01:20;101988.44;;;4.62;100.00
48668;BME280;34453;52.198;5.004;2023-12-14T04:03:46;101977.09;;;4.65;100.00
48668;BME280;34453;52.198;5.004;2023-12-14T04:06:12;101989.28;;;4.63;100.00
48668;BME280;34453;52.198;5.004;2023-12-14T04:08:38;101989.13;;;4.66;100.00
48668;BME280;34453;52.198;5.004;2023-12-14T04:11:04;101990.19;;;4.62;100.00
48668;BME280;34453;52.198;5.004;2023-12-14T04:13:32;101997.91;;;4.63;100.00
48668;BME280;34453;52.198;5.004;2023-12-14T04:15:57;102006.50;;;4.64;100.00
48668;BME280;34453;52.198;5.004;2023-12-14T04:18:23;102003.97;;;4.62;100.00
48668;BME280;34453;52.198;5.004;2023-12-14T04:20:49;102009.16;;;4.62;100.00
48668;BME280;34453;52.198;5.004;2023-12-14T04:23:14;102012.53;;;4.64;100.00
48668;BME280;34453;52.198;5.004;2023-12-14T04:25:40;102017.72;;;4.64;100.00
48668;BME280;34453;52.198;5.004;2023-12-14T04:28:05;102013.53;;;4.62;100.00
48668;BME280;34453;52.198;5.004;2023-12-14T04:30:31;102023.88;;;4.62;100.00
48668;BME280;34453;52.198;5.004;2023-12-14T04:32:56;102029.13;;;4.60;100.00
48668;BME280;34453;52.198;5.004;2023-12-14T04:35:22;102032.59;;;4.61;100.00
48668;BME280;34453;52.198;5.004;2023-12-14T04:37:48;102028.19;;;4.63;100.00
48668;BME280;34453;52.198;5.004;2023-12-14T04:40:13;102042.19;;;4.59;100.00
48668;BME280;34453;52.198;5.004;2023-12-14T04:42:39;102043.78;;;4.61;100.00
48668;BME280;34453;52.198;5.004;2023-12-14T04:45:05;102049.03;;;4.60;100.00
48668;BME280;34453;52.198;5.004;2023-12-14T04:47:31;102056.91;;;4.58;100.00
48668;BME280;34453;52.198;5.004;2023-12-14T04:49:56;102066.19;;;4.62;100.00
48668;BME280;34453;52.198;5.004;2023-12-14T04:52:22;102074.84;;;4.63;100.00
48668;BME280;34453;52.198;5.004;2023-12-14T04:54:47;102079.09;;;4.64;100.00
48668;BME280;34453;52.198;5.004;2023-12-14T04:57:12;102083.56;;;4.60;100.00
48668;BME280;34453;52.198;5.004;2023-12-14T04:59:41;102082.75;;;4.60;100.00
48668;BME280;34453;52.198;5.004;2023-12-14T05:02:07;102087.25;;;4.56;100.00
48668;BME280;34453;52.198;5.004;2023-12-14T05:04:32;102101.88;;;4.57;100.00
48668;BME280;34453;52.198;5.004;2023-12-14T05:06:58;102105.31;;;4.57;100.00
48668;BME280;34453;52.198;5.004;2023-12-14T05:09:23;102101.03;;;4.56;100.00
48668;BME280;34453;52.198;5.004;2023-12-14T05:11:49;102115.09;;;4.51;100.00
48668;BME280;34453;52.198;5.004;2023-12-14T05:14:14;102116.81;;;4.52;100.00
48668;BME280;34453;52.198;5.004;2023-12-14T05:16:40;102118.25;;;4.57;100.00
48668;BME280;34453;52.198;5.004;2023-12-14T05:19:06;102127.84;;;4.55;100.00
48668;BME280;34453;52.198;5.004;2023-12-14T05:21:31;102130.53;;;4.54;100.00
48668;BME280;34453;52.198;5.004;2023-12-14T05:23:57;102135.78;;;4.52;100.00
48668;BME280;34453;52.198;5.004;2023-12-14T05:26:22;102147.06;;;4.51;100.00
48668;BME280;34453;52.198;5.004;2023-12-14T05:28:48;102140.03;;;4.53;100.00
48668;BME280;34453;52.198;5.004;2023-12-14T05:31:13;102140.91;;;4.54;100.00
48668;BME280;34453;52.198;5.004;2023-12-14T05:33:39;102145.22;;;4.53;100.00
48668;BME280;34453;52.198;5.004;2023-12-14T05:36:05;102143.56;;;4.52;100.00
48668;BME280;34453;52.198;5.004;2023-12-14T05:38:34;102149.56;;;4.53;100.00
48668;BME280;34453;52.198;5.004;2023-12-14T05:41:00;102156.66;;;4.49;100.00
48668;BME280;34453;52.198;5.004;2023-12-14T05:43:25;102164.28;;;4.52;100.00
48668;BME280;34453;52.198;5.004;2023-12-14T05:45:51;102174.09;;;4.46;100.00
48668;BME280;34453;52.198;5.004;2023-12-14T05:48:16;102173.38;;;4.42;100.00
48668;BME280;34453;52.198;5.004;2023-12-14T05:50:42;102171.66;;;4.43;100.00
48668;BME280;34453;52.198;5.004;2023-12-14T05:53:07;102177.72;;;4.42;100.00
48668;BME280;34453;52.198;5.004;2023-12-14T05:55:33;102175.97;;;4.42;100.00
48668;BME280;34453;52.198;5.004;2023-12-14T05:57:58;102175.97;;;4.42;100.00
48668;BME280;34453;52.198;5.004;2023-12-14T06:00:23;102171.78;;;4.40;100.00
48668;BME280;34453;52.198;5.004;2023-12-14T06:02:49;102177.72;;;4.42;100.00
48668;BME280;34453;52.198;5.004;2023-12-14T06:05:14;102187.25;;;4.41;100.00
48668;BME280;34453;52.198;5.004;2023-12-14T06:07:40;102183.84;;;4.41;100.00
48668;BME280;34453;52.198;5.004;2023-12-14T06:10:06;102189.84;;;4.41;100.00
48668;BME280;34453;52.198;5.004;2023-12-14T06:12:31;102191.66;;;4.39;100.00
48668;BME280;34453;52.198;5.004;2023-12-14T06:14:57;102195.34;;;4.33;100.00
48668;BME280;34453;52.198;5.004;2023-12-14T06:17:22;102194.41;;;4.36;100.00
48668;BME280;34453;52.198;5.004;2023-12-14T06:19:51;102200.41;;;4.36;100.00
48668;BME280;34453;52.198;5.004;2023-12-14T06:22:16;102206.66;;;4.32;100.00
48668;BME280;34453;52.198;5.004;2023-12-14T06:24:42;102208.50;;;4.29;100.00
48668;BME280;34453;52.198;5.004;2023-12-14T06:27:07;102206.00;;;4.27;100.00
48668;BME280;34453;52.198;5.004;2023-12-14T06:29:33;102210.31;;;4.27;100.00
48668;BME280;34453;52.198;5.004;2023-12-14T06:31:58;102215.41;;;4.30;100.00
48668;BME280;34453;52.198;5.004;2023-12-14T06:34:24;102218.81;;;4.30;100.00
48668;BME280;34453;52.198;5.004;2023-12-14T06:36:50;102221.47;;;4.29;100.00
48668;BME280;34453;52.198;5.004;2023-12-14T06:39:16;102220.56;;;4.30;100.00
48668;BME280;34453;52.198;5.004;2023-12-14T06:41:41;102243.84;;;4.31;100.00
48668;BME280;34453;52.198;5.004;2023-12-14T06:44:07;102251.66;;;4.30;100.00
48668;BME280;34453;52.198;5.004;2023-12-14T06:46:34;102253.34;;;4.31;100.00
48668;BME280;34453;52.198;5.004;2023-12-14T06:49:00;102258.66;;;4.28;100.00
48668;BME280;34453;52.198;5.004;2023-12-14T06:51:26;102261.13;;;4.31;100.00
48668;BME280;34453;52.198;5.004;2023-12-14T06:53:51;102264.69;;;4.28;100.00
48668;BME280;34453;52.198;5.004;2023-12-14T06:56:17;102271.47;;;4.31;100.00
48668;BME280;34453;52.198;5.004;2023-12-14T06:58:44;102273.28;;;4.29;100.00
48668;BME280;34453;52.198;5.004;2023-12-14T07:01:14;102278.41;;;4.30;100.00
48668;BME280;34453;52.198;5.004;2023-12-14T07:03:48;102282.72;;;4.31;100.00
48668;BME280;34453;52.198;5.004;2023-12-14T07:06:14;102283.59;;;4.30;100.00
48668;BME280;34453;52.198;5.004;2023-12-14T07:08:41;102285.41;;;4.28;100.00
48668;BME280;34453;52.198;5.004;2023-12-14T07:11:10;102284.31;;;4.34;100.00
48668;BME280;34453;52.198;5.004;2023-12-14T07:13:36;102286.19;;;4.30;100.00
48668;BME280;34453;52.198;5.004;2023-12-14T07:16:11;102301.53;;;4.35;100.00
48668;BME280;34453;52.198;5.004;2023-12-14T07:18:41;102301.69;;;4.32;100.00
48668;BME280;34453;52.198;5.004;2023-12-14T07:21:07;102305.94;;;4.33;100.00
48668;BME280;34453;52.198;5.004;2023-12-14T07:23:34;102305.88;;;4.34;100.00
48668;BME280;34453;52.198;5.004;2023-12-14T07:26:00;102305.06;;;4.34;100.00
48668;BME280;34453;52.198;5.004;2023-12-14T07:28:26;102302.50;;;4.32;100.00
48668;BME280;34453;52.198;5.004;2023-12-14T07:30:52;102301.69;;;4.32;100.00
48668;BME280;34453;52.198;5.004;2023-12-14T07:33:17;102311.91;;;4.35;100.00
48668;BME280;34453;52.198;5.004;2023-12-14T07:35:43;102308.47;;;4.34;100.00
48668;BME280;34453;52.198;5.004;2023-12-14T07:38:10;102316.09;;;4.38;100.00
48668;BME280;34453;52.198;5.004;2023-12-14T07:40:37;102323.19;;;4.34;100.00
48668;BME280;34453;52.198;5.004;2023-12-14T07:43:07;102328.38;;;4.34;100.00
48668;BME280;34453;52.198;5.004;2023-12-14T07:45:32;102334.34;;;4.36;100.00
48668;BME280;34453;52.198;5.004;2023-12-14T07:47:58;102341.91;;;4.41;100.00
48668;BME280;34453;52.198;5.004;2023-12-14T07:50:24;102351.41;;;4.40;100.00
48668;BME280;34453;52.198;5.004;2023-12-14T07:52:49;102350.56;;;4.40;100.00
48668;BME280;34453;52.198;5.004;2023-12-14T07:55:15;102364.47;;;4.39;100.00
48668;BME280;34453;52.198;5.004;2023-12-14T07:57:40;102361.78;;;4.40;100.00
48668;BME280;34453;52.198;5.004;2023-12-14T08:00:06;102366.84;;;4.43;100.00
48668;BME280;34453;52.198;5.004;2023-12-14T08:02:35;102370.22;;;4.45;100.00
48668;BME280;34453;52.198;5.004;2023-12-14T08:05:01;102364.91;;;4.48;100.00
48668;BME280;34453;52.198;5.004;2023-12-14T08:07:26;102378.06;;;4.44;100.00
48668;BME280;34453;52.198;5.004;2023-12-14T08:09:58;102366.06;;;4.41;100.00
48668;BME280;34453;52.198;5.004;2023-12-14T08:12:24;102360.09;;;4.39;100.00
48668;BME280;34453;52.198;5.004;2023-12-14T08:14:50;102360.88;;;4.41;100.00
48668;BME280;34453;52.198;5.004;2023-12-14T08:17:16;102368.53;;;4.44;100.00
48668;BME280;34453;52.198;5.004;2023-12-14T08:19:42;102369.31;;;4.46;100.00
48668;BME280;34453;52.198;5.004;2023-12-14T08:22:08;102367.50;;;4.48;100.00
48668;BME280;34453;52.198;5.004;2023-12-14T08:24:36;102373.47;;;4.50;100.00
48668;BME280;34453;52.198;5.004;2023-12-14T08:27:02;102364.00;;;4.49;100.00
48668;BME280;34453;52.198;5.004;2023-12-14T08:29:28;102378.66;;;4.50;100.00
48668;BME280;34453;52.198;5.004;2023-12-14T08:31:53;102386.94;;;4.59;100.00
48668;BME280;34453;52.198;5.004;2023-12-14T08:34:23;102397.31;;;4.59;100.00
48668;BME280;34453;52.198;5.004;2023-12-14T08:36:48;102404.31;;;4.56;100.00
48668;BME280;34453;52.198;5.004;2023-12-14T08:39:14;102396.41;;;4.60;100.00
48668;BME280;34453;52.198;5.004;2023-12-14T08:41:39;102402.25;;;4.65;100.00
48668;BME280;34453;52.198;5.004;2023-12-14T08:44:06;102405.59;;;4.67;100.00
48668;BME280;34453;52.198;5.004;2023-12-14T08:46:42;102387.44;;;4.67;100.00
48668;BME280;34453;52.198;5.004;2023-12-14T08:49:08;102394.47;;;4.65;100.00
48668;BME280;34453;52.198;5.004;2023-12-14T08:51:34;102385.13;;;4.61;100.00
48668;BME280;34453;52.198;5.004;2023-12-14T08:53:59;102395.56;;;4.59;100.00
48668;BME280;34453;52.198;5.004;2023-12-14T08:56:25;102390.44;;;4.57;100.00
48668;BME280;34453;52.198;5.004;2023-12-14T08:58:50;102396.53;;;4.56;100.00
48668;BME280;34453;52.198;5.004;2023-12-14T09:01:23;102410.28;;;4.59;100.00
48668;BME280;34453;52.198;5.004;2023-12-14T09:03:49;102401.09;;;4.72;100.00
48668;BME280;34453;52.198;5.004;2023-12-14T09:06:16;102416.06;;;4.86;100.00
48668;BME280;34453;52.198;5.004;2023-12-14T09:08:42;102424.22;;;4.97;100.00
48668;BME280;34453;52.198;5.004;2023-12-14T09:11:07;102422.19;;;5.04;100.00
48668;BME280;34453;52.198;5.004;2023-12-14T09:13:33;102434.44;;;5.21;100.00
48668;BME280;34453;52.198;5.004;2023-12-14T09:15:59;102435.38;;;5.38;100.00
48668;BME280;34453;52.198;5.004;2023-12-14T09:18:24;102442.06;;;5.63;100.00
48668;BME280;34453;52.198;5.004;2023-12-14T09:20:50;102454.81;;;5.87;100.00
48668;BME280;34453;52.198;5.004;2023-12-14T09:23:16;102477.25;;;6.08;100.00
48668;BME280;34453;52.198;5.004;2023-12-14T09:25:42;102475.97;;;6.17;100.00
48668;BME280;34453;52.198;5.004;2023-12-14T09:28:07;102465.28;;;6.23;100.00
48668;BME280;34453;52.198;5.004;2023-12-14T09:30:33;102449.69;;;6.23;100.00
48668;BME280;34453;52.198;5.004;2023-12-14T09:32:59;102456.06;;;6.35;100.00
48668;BME280;34453;52.198;5.004;2023-12-14T09:35:24;102450.72;;;6.55;100.00
48668;BME280;34453;52.198;5.004;2023-12-14T09:37:50;102457.47;;;6.77;100.00
48668;BME280;34453;52.198;5.004;2023-12-14T09:40:15;102459.59;;;6.86;100.00
48668;BME280;34453;52.198;5.004;2023-12-14T09:42:42;102445.34;;;6.93;100.00
48668;BME280;34453;52.198;5.004;2023-12-14T09:45:08;102441.69;;;6.97;100.00
48668;BME280;34453;52.198;5.004;2023-12-14T09:47:35;102436.47;;;6.97;100.00
48668;BME280;34453;52.198;5.004;2023-12-14T09:50:01;102439.91;;;6.98;100.00
48668;BME280;34453;52.198;5.004;2023-12-14T09:52:28;102433.50;;;7.05;100.00
48668;BME280;34453;52.198;5.004;2023-12-14T09:54:54;102440.84;;;6.97;100.00
48668;BME280;34453;52.198;5.004;2023-12-14T09:57:20;102437.41;;;6.96;100.00
48668;BME280;34453;52.198;5.004;2023-12-14T09:59:55;102429.75;;;6.93;100.00
48668;BME280;34453;52.198;5.004;2023-12-14T10:02:25;102431.91;;;6.85;100.00
48668;BME280;34453;52.198;5.004;2023-12-14T10:04:51;102434.94;;;6.76;100.00
48668;BME280;34453;52.198;5.004;2023-12-14T10:07:18;102432.53;;;6.73;100.00
48668;BME280;34453;52.198;5.004;2023-12-14T10:09:43;102427.78;;;6.63;100.00
48668;BME280;34453;52.198;5.004;2023-12-14T10:12:10;102428.84;;;6.59;100.00
48668;BME280;34453;52.198;5.004;2023-12-14T10:14:36;102431.44;;;6.59;100.00
48668;BME280;34453;52.198;5.004;2023-12-14T10:17:17;102436.66;;;6.59;100.00
48668;BME280;34453;52.198;5.004;2023-12-14T10:19:43;102446.22;;;6.59;100.00
48668;BME280;34453;52.198;5.004;2023-12-14T10:22:10;102445.50;;;6.55;100.00
48668;BME280;34453;52.198;5.004;2023-12-14T10:24:36;102452.56;;;6.53;100.00
48668;BME280;34453;52.198;5.004;2023-12-14T10:27:07;102454.09;;;6.57;100.00
48668;BME280;34453;52.198;5.004;2023-12-14T10:29:33;102468.34;;;6.68;100.00
48668;BME280;34453;52.198;5.004;2023-12-14T10:32:03;102465.56;;;6.71;100.00
48668;BME280;34453;52.198;5.004;2023-12-14T10:34:31;102472.78;;;6.83;100.00
48668;BME280;34453;52.198;5.004;2023-12-14T10:36:56;102473.69;;;6.82;100.00
48668;BME280;34453;52.198;5.004;2023-12-14T10:39:23;102466.03;;;6.79;100.00
48668;BME280;34453;52.198;5.004;2023-12-14T10:41:52;102456.88;;;6.72;100.00
48668;BME280;34453;52.198;5.004;2023-12-14T10:44:21;102451.78;;;6.69;100.00
48668;BME280;34453;52.198;5.004;2023-12-14T10:46:48;102451.88;;;6.84;100.00
48668;BME280;34453;52.198;5.004;2023-12-14T10:49:16;102435.00;;;7.09;100.00
48668;BME280;34453;52.198;5.004;2023-12-14T10:51:41;102445.72;;;7.54;100.00
48668;BME280;34453;52.198;5.004;2023-12-14T10:54:08;102428.63;;;7.64;100.00
48668;BME280;34453;52.198;5.004;2023-12-14T10:56:34;102431.16;;;7.81;100.00
48668;BME280;34453;52.198;5.004;2023-12-14T10:59:00;102409.25;;;7.54;100.00
48668;BME280;34453;52.198;5.004;2023-12-14T11:01:28;102420.56;;;7.84;100.00
48668;BME280;34453;52.198;5.004;2023-12-14T11:03:56;102407.41;;;7.72;100.00
48668;BME280;34453;52.198;5.004;2023-12-14T11:08:52;102389.72;;;8.39;100.00
48668;BME280;34453;52.198;5.004;2023-12-14T11:11:18;102401.94;;;8.83;100.00
48668;BME280;34453;52.198;5.004;2023-12-14T11:13:54;102410.69;;;9.25;100.00
48668;BME280;34453;52.198;5.004;2023-12-14T11:16:20;102367.63;;;8.75;100.00
48668;BME280;34453;52.198;5.004;2023-12-14T11:21:47;102337.91;;;8.02;100.00
48668;BME280;34453;52.198;5.004;2023-12-14T11:24:13;102335.78;;;7.79;100.00
48668;BME280;34453;52.198;5.004;2023-12-14T11:26:40;102336.59;;;7.79;100.00
48668;BME280;34453;52.198;5.004;2023-12-14T11:29:06;102344.84;;;7.87;100.00
48668;BME280;34453;52.198;5.004;2023-12-14T11:31:32;102345.53;;;7.43;100.00
48668;BME280;34453;52.198;5.004;2023-12-14T11:33:59;102348.28;;;7.09;100.00
48668;BME280;34453;52.198;5.004;2023-12-14T11:36:29;102375.22;;;7.08;100.00
48668;BME280;34453;52.198;5.004;2023-12-14T11:38:55;102394.50;;;6.88;100.00
48668;BME280;34453;52.198;5.004;2023-12-14T11:41:21;102407.69;;;6.67;100.00
48668;BME280;34453;52.198;5.004;2023-12-14T11:43:47;102420.44;;;6.54;100.00
48668;BME280;34453;52.198;5.004;2023-12-14T11:46:14;102424.25;;;6.30;100.00
48668;BME280;34453;52.198;5.004;2023-12-14T11:48:43;102441.19;;;6.19;100.00
48668;BME280;34453;52.198;5.004;2023-12-14T11:51:09;102456.72;;;6.21;100.00
48668;BME280;34453;52.198;5.004;2023-12-14T11:53:35;102476.19;;;6.12;100.00
48668;BME280;34453;52.198;5.004;2023-12-14T11:56:04;102479.06;;;6.06;100.00
48668;BME280;34453;52.198;5.004;2023-12-14T11:58:31;102477.84;;;5.96;100.00
48668;BME280;34453;52.198;5.004;2023-12-14T12:01:14;102485.09;;;5.88;100.00
48668;BME280;34453;52.198;5.004;2023-12-14T12:03:40;102491.28;;;5.85;100.00
48668;BME280;34453;52.198;5.004;2023-12-14T12:06:06;102497.56;;;5.79;100.00
48668;BME280;34453;52.198;5.004;2023-12-14T12:08:40;102515.66;;;5.82;100.00
48668;BME280;34453;52.198;5.004;2023-12-14T12:11:07;102509.53;;;5.84;100.00
48668;BME280;34453;52.198;5.004;2023-12-14T12:13:34;102515.22;;;5.92;100.00
48668;BME280;34453;52.198;5.004;2023-12-14T12:16:00;102523.66;;;5.97;100.00
48668;BME280;34453;52.198;5.004;2023-12-14T12:18:25;102527.50;;;5.88;100.00
48668;BME280;34453;52.198;5.004;2023-12-14T12:20:51;102532.75;;;5.87;100.00
48668;BME280;34453;52.198;5.004;2023-12-14T12:23:18;102522.72;;;5.79;100.00
48668;BME280;34453;52.198;5.004;2023-12-14T12:25:44;102525.25;;;5.80;100.00
48668;BME280;34453;52.198;5.004;2023-12-14T12:28:09;102530.84;;;5.71;100.00
48668;BME280;34453;52.198;5.004;2023-12-14T12:30:35;102532.59;;;5.71;100.00
48668;BME280;34453;52.198;5.004;2023-12-14T12:33:01;102525.94;;;5.65;100.00
48668;BME280;34453;52.198;5.004;2023-12-14T12:35:26;102524.81;;;5.71;100.00
48668;BME280;34453;52.198;5.004;2023-12-14T12:37:52;102530.00;;;5.71;100.00
48668;BME280;34453;52.198;5.004;2023-12-14T12:40:22;102532.38;;;5.75;100.00
48668;BME280;34453;52.198;5.004;2023-12-14T12:42:48;102524.69;;;5.74;100.00
48668;BME280;34453;52.198;5.004;2023-12-14T12:45:15;102526.78;;;5.85;100.00
48668;BME280;34453;52.198;5.004;2023-12-14T12:47:42;102539.13;;;5.79;100.00
48668;BME280;34453;52.198;5.004;2023-12-14T12:50:07;102538.34;;;5.77;100.00